createdAt,value
2022-07-26T04:02:50.094Z,57.73
2022-07-26T04:05:16.779Z,57.89
2022-07-26T04:07:53.028Z,58.31
2022-07-26T04:10:20.884Z,58.22
2022-07-26T04:12:47.402Z,58.10
2022-07-26T04:15:16.091Z,58.04
2022-07-26T04:17:43.267Z,58.06
2022-07-26T04:20:24.795Z,58.24
2022-07-26T04:22:51.277Z,58.15
2022-07-26T04:25:18.778Z,58.20
2022-07-26T04:27:45.271Z,58.35
2022-07-26T04:30:15.035Z,58.49
2022-07-26T04:32:42.935Z,58.30
2022-07-26T04:35:10.792Z,58.10
2022-07-26T04:37:42.652Z,58.30
2022-07-26T04:40:10.318Z,58.34
2022-07-26T04:42:38.329Z,58.16
2022-07-26T04:45:08.376Z,58.43
2022-07-26T04:47:35.491Z,58.32
2022-07-26T04:50:03.948Z,58.68
2022-07-26T04:52:30.463Z,58.75
2022-07-26T04:54:56.911Z,58.77
2022-07-26T04:57:23.539Z,58.82
2022-07-26T05:00:03.336Z,58.76
2022-07-26T05:02:36.752Z,58.76
2022-07-26T05:05:04.999Z,59.20
2022-07-26T05:07:47.084Z,59.06
2022-07-26T05:10:15.624Z,59.09
2022-07-26T05:12:42.361Z,59.42
2022-07-26T05:15:13.675Z,59.70
2022-07-26T05:17:42.774Z,59.61
2022-07-26T05:20:11.366Z,59.74
2022-07-26T05:22:38.228Z,60.03
2022-07-26T05:25:06.385Z,59.81
2022-07-26T05:27:33.289Z,60.11
2022-07-26T05:29:59.835Z,60.34
2022-07-26T05:32:28.037Z,59.72
2022-07-26T05:34:54.603Z,59.90
2022-07-26T05:37:21.109Z,59.56
2022-07-26T05:39:47.589Z,59.48
2022-07-26T05:42:14.027Z,59.84
2022-07-26T05:44:42.668Z,59.40
2022-07-26T05:47:09.813Z,59.62
2022-07-26T05:49:40.507Z,59.69
2022-07-26T05:52:08.295Z,59.45
2022-07-26T05:54:35.145Z,59.61
2022-07-26T05:57:02.058Z,59.07
2022-07-26T05:59:28.946Z,59.31
2022-07-26T06:01:58.337Z,59.19
2022-07-26T06:04:26.716Z,59.58
2022-07-26T06:06:54.630Z,59.83
2022-07-26T06:09:22.277Z,59.58
2022-07-26T06:11:48.768Z,59.37
2022-07-26T06:14:15.439Z,59.37
2022-07-26T06:16:42.081Z,59.22
2022-07-26T06:19:08.649Z,59.39
2022-07-26T06:21:35.171Z,59.85
2022-07-26T06:24:01.618Z,59.59
2022-07-26T06:26:28.277Z,59.18
2022-07-26T06:28:54.847Z,59.16
2022-07-26T06:31:21.699Z,59.40
2022-07-26T06:33:48.207Z,59.47
2022-07-26T06:36:14.744Z,59.19
2022-07-26T06:38:41.267Z,59.81
2022-07-26T06:41:07.842Z,59.74
2022-07-26T06:43:34.374Z,59.96
2022-07-26T06:46:01.094Z,60.12
2022-07-26T06:48:27.780Z,60.04
2022-07-26T06:50:55.471Z,59.95
2022-07-26T06:53:21.939Z,60.24
2022-07-26T06:55:48.411Z,60.44
2022-07-26T06:58:14.897Z,60.08
2022-07-26T07:00:41.527Z,59.77
2022-07-26T07:03:08.212Z,60.08
2022-07-26T07:05:34.675Z,60.22
2022-07-26T07:08:01.162Z,60.18
2022-07-26T07:10:29.061Z,62.52
2022-07-26T07:12:56.056Z,62.77
2022-07-26T07:15:22.512Z,61.78
2022-07-26T07:17:49.009Z,61.17
2022-07-26T07:20:15.472Z,61.27
2022-07-26T07:22:41.940Z,61.14
2022-07-26T07:25:08.689Z,60.91
2022-07-26T07:27:35.159Z,60.98
2022-07-26T07:30:02.269Z,60.24
2022-07-26T07:32:30.861Z,60.76
2022-07-26T07:34:57.528Z,60.21
2022-07-26T07:37:24.080Z,60.07
2022-07-26T07:39:51.241Z,60.36
2022-07-26T07:42:19.200Z,61.28
2022-07-26T07:44:46.550Z,60.60
2022-07-26T07:47:14.074Z,61.19
2022-07-26T07:49:40.660Z,62.29
2022-07-26T07:52:07.134Z,62.09
2022-07-26T07:54:33.623Z,63.16
2022-07-26T07:57:00.091Z,62.37
2022-07-26T07:59:27.275Z,62.73
2022-07-26T08:01:55.462Z,62.58
2022-07-26T08:04:21.937Z,63.29
2022-07-26T08:06:51.407Z,63.38
2022-07-26T08:09:19.023Z,62.26
2022-07-26T08:11:45.702Z,62.45
2022-07-26T08:14:18.013Z,63.04
2022-07-26T08:16:44.763Z,62.78
2022-07-26T08:19:11.924Z,62.81
2022-07-26T08:21:38.995Z,62.18
2022-07-26T08:24:06.581Z,63.22
2022-07-26T08:26:33.108Z,63.08
2022-07-26T08:29:00.529Z,62.79
2022-07-26T08:31:30.493Z,62.42
2022-07-26T08:33:57.191Z,62.28
2022-07-26T08:36:28.220Z,62.59
2022-07-26T08:38:58.328Z,62.32
2022-07-26T08:41:24.819Z,62.13
2022-07-26T08:43:53.643Z,62.41
2022-07-26T08:46:26.477Z,61.65
2022-07-26T08:48:55.090Z,61.51
2022-07-26T08:51:24.081Z,61.29
2022-07-26T08:54:00.545Z,61.05
2022-07-26T08:56:30.437Z,61.18
2022-07-26T08:58:57.185Z,61.08
2022-07-26T09:01:23.853Z,61.10
2022-07-26T09:03:50.411Z,61.10
2022-07-26T09:06:20.085Z,60.55
2022-07-26T09:08:49.597Z,60.22
2022-07-26T09:11:30.447Z,59.88
2022-07-26T09:14:02.605Z,59.83
2022-07-26T09:16:30.211Z,59.82
2022-07-26T09:19:17.675Z,59.17
2022-07-26T09:21:44.903Z,59.13
2022-07-26T09:24:11.471Z,59.49
2022-07-26T09:26:38.650Z,59.62
2022-07-26T09:29:10.834Z,59.42
2022-07-26T09:31:39.512Z,59.06
2022-07-26T09:34:07.110Z,59.06
2022-07-26T09:36:49.556Z,58.83
2022-07-26T09:39:16.098Z,59.27
2022-07-26T09:41:42.700Z,59.17
2022-07-26T09:44:26.366Z,58.98
2022-07-26T09:46:53.925Z,58.84
2022-07-26T09:49:21.783Z,58.89
2022-07-26T09:51:53.662Z,59.00
2022-07-26T09:54:31.847Z,58.12
2022-07-26T09:56:58.657Z,58.46
2022-07-26T09:59:26.795Z,58.32
2022-07-26T10:01:56.304Z,57.81
2022-07-26T10:04:24.385Z,57.79
2022-07-26T10:06:52.021Z,56.34
2022-07-26T10:09:19.931Z,57.09
2022-07-26T10:11:54.793Z,56.54
2022-07-26T10:14:33.436Z,56.32
2022-07-26T10:17:01.587Z,56.70
2022-07-26T10:19:41.794Z,57.17
2022-07-26T10:22:26.021Z,57.25
2022-07-26T10:24:58.301Z,56.98
2022-07-26T10:27:38.913Z,57.22
2022-07-26T10:30:33.916Z,56.85
2022-07-26T10:33:02.601Z,56.83
2022-07-26T10:35:32.689Z,56.54
2022-07-26T10:38:01.564Z,56.72
2022-07-26T10:40:30.173Z,56.55
2022-07-26T10:43:39.093Z,56.62
2022-07-26T10:46:16.879Z,56.52
2022-07-26T10:49:04.174Z,56.36
2022-07-26T10:51:36.716Z,55.53
2022-07-26T10:54:09.691Z,55.70
2022-07-26T10:56:37.031Z,55.29
2022-07-26T10:59:05.505Z,54.96
2022-07-26T11:01:33.600Z,54.85
2022-07-26T11:04:00.681Z,54.54
2022-07-26T11:06:31.972Z,54.26
2022-07-26T11:08:58.767Z,54.33
2022-07-26T11:11:30.543Z,54.50
2022-07-26T11:14:09.094Z,54.08
2022-07-26T11:16:43.207Z,54.30
2022-07-26T11:19:29.207Z,54.21
2022-07-26T11:22:00.434Z,54.04
2022-07-26T11:24:28.439Z,53.48
2022-07-26T11:26:55.704Z,53.72
2022-07-26T11:29:38.938Z,54.14
2022-07-26T11:32:17.678Z,54.10
2022-07-26T11:34:45.425Z,54.10
2022-07-26T11:37:12.262Z,53.98
2022-07-26T11:39:38.874Z,54.06
2022-07-26T11:42:15.010Z,53.63
2022-07-26T11:44:45.984Z,53.46
2022-07-26T11:47:14.479Z,52.56
2022-07-26T11:49:52.482Z,52.94
2022-07-26T11:52:32.146Z,51.98
2022-07-26T11:54:59.221Z,51.72
2022-07-26T11:57:30.548Z,51.46
2022-07-26T11:59:58.617Z,51.33
2022-07-26T12:02:26.275Z,51.72
2022-07-26T12:05:14.364Z,51.58
2022-07-26T12:07:56.360Z,51.81
2022-07-26T12:10:23.038Z,51.38
2022-07-26T12:12:49.783Z,50.60
2022-07-26T12:15:16.418Z,50.70
2022-07-26T12:18:00.299Z,51.02
2022-07-26T12:20:28.172Z,50.91
2022-07-26T12:22:57.610Z,50.67
2022-07-26T12:25:29.014Z,50.95
2022-07-26T12:27:55.590Z,51.35
2022-07-26T12:30:22.422Z,51.08
2022-07-26T12:32:51.892Z,51.40
2022-07-26T12:35:29.447Z,51.24
2022-07-26T12:37:56.944Z,50.91
2022-07-26T12:40:25.700Z,50.75
2022-07-26T12:42:55.837Z,50.49
2022-07-26T12:45:29.540Z,50.29
2022-07-26T12:47:57.990Z,50.04
2022-07-26T12:50:27.914Z,49.94
2022-07-26T12:53:03.039Z,50.44
2022-07-26T12:55:29.773Z,50.14
2022-07-26T12:57:57.175Z,49.94
2022-07-26T13:00:23.984Z,50.28
2022-07-26T13:02:51.231Z,49.78
2022-07-26T13:05:17.789Z,49.86
2022-07-26T13:07:44.357Z,50.04
2022-07-26T13:12:57.610Z,49.64
2022-07-26T13:15:24.185Z,49.19
2022-07-26T13:18:03.201Z,49.22
2022-07-26T13:20:30.572Z,49.55
2022-07-26T13:22:57.118Z,49.00
2022-07-26T13:25:25.396Z,48.79
2022-07-26T13:27:55.476Z,48.93
2022-07-26T13:30:22.304Z,48.35
2022-07-26T13:32:48.965Z,48.49
2022-07-26T13:35:15.457Z,48.34
2022-07-26T13:37:41.919Z,48.74
2022-07-26T13:40:09.007Z,48.80
2022-07-26T13:42:37.986Z,48.87
2022-07-26T13:45:06.301Z,48.48
2022-07-26T13:47:32.763Z,48.01
2022-07-26T13:49:59.374Z,48.06
2022-07-26T13:52:25.883Z,47.72
2022-07-26T13:54:53.099Z,47.81
2022-07-26T13:57:19.561Z,46.80
2022-07-26T13:59:46.094Z,47.14
2022-07-26T14:02:12.724Z,47.03
2022-07-26T14:04:39.333Z,46.71
2022-07-26T14:07:05.790Z,46.58
2022-07-26T14:09:32.690Z,46.24
2022-07-26T14:11:59.267Z,45.69
2022-07-26T14:14:25.730Z,45.40
2022-07-26T14:16:52.266Z,45.29
2022-07-26T14:19:18.868Z,45.66
2022-07-26T14:21:47.260Z,45.00
2022-07-26T14:24:26.531Z,45.01
2022-07-26T14:26:56.857Z,45.65
2022-07-26T14:29:26.335Z,45.23
2022-07-26T14:31:53.188Z,44.80
2022-07-26T14:34:19.805Z,44.74
2022-07-26T14:36:46.366Z,43.25
2022-07-26T14:39:12.813Z,43.07
2022-07-26T14:41:39.534Z,43.09
2022-07-26T14:44:06.784Z,43.73
2022-07-26T14:46:33.474Z,43.89
2022-07-26T14:49:01.377Z,43.69
2022-07-26T14:51:28.051Z,43.70
2022-07-26T14:53:54.680Z,43.73
2022-07-26T14:56:21.678Z,43.85
2022-07-26T14:58:48.131Z,43.83
2022-07-26T15:01:14.710Z,43.88
2022-07-26T15:03:41.231Z,43.50
2022-07-26T15:06:07.740Z,43.53
2022-07-26T15:08:34.382Z,43.11
2022-07-26T15:11:00.899Z,43.06
2022-07-26T15:13:27.477Z,43.35
2022-07-26T15:15:54.013Z,43.00
2022-07-26T15:18:20.515Z,42.62
2022-07-26T15:20:47.232Z,42.17
2022-07-26T15:23:16.465Z,41.21
2022-07-26T15:25:43.100Z,40.93
2022-07-26T15:28:09.620Z,41.30
2022-07-26T15:30:37.244Z,41.08
2022-07-26T15:33:03.768Z,41.23
2022-07-26T15:35:30.291Z,40.83
2022-07-26T15:37:57.628Z,40.97
2022-07-26T15:40:24.625Z,41.14
2022-07-26T15:42:53.038Z,41.36
2022-07-26T15:45:22.584Z,41.39
2022-07-26T15:47:56.235Z,41.16
2022-07-26T15:50:26.130Z,41.09
2022-07-26T15:52:52.905Z,41.55
2022-07-26T15:55:20.663Z,41.40
2022-07-26T15:57:47.518Z,41.43
2022-07-26T16:00:15.238Z,41.18
2022-07-26T16:02:42.128Z,41.54
2022-07-26T16:05:10.286Z,41.19
2022-07-26T16:07:37.713Z,41.71
2022-07-26T16:10:04.993Z,41.79
2022-07-26T16:12:31.462Z,41.73
2022-07-26T16:14:57.906Z,41.65
2022-07-26T16:17:25.215Z,42.13
2022-07-26T16:19:52.893Z,42.77
2022-07-26T16:22:19.453Z,42.93
2022-07-26T16:24:46.093Z,43.27
2022-07-26T16:27:12.599Z,43.09
2022-07-26T16:29:39.230Z,43.08
2022-07-26T16:32:08.219Z,42.71
2022-07-26T16:34:34.935Z,42.47
2022-07-26T16:37:02.146Z,42.45
2022-07-26T16:39:28.895Z,42.67
2022-07-26T16:41:55.351Z,42.66
2022-07-26T16:44:23.992Z,42.15
2022-07-26T16:46:51.606Z,42.42
2022-07-26T16:49:18.209Z,42.44
2022-07-26T16:51:44.775Z,42.33
2022-07-26T16:54:11.378Z,42.55
2022-07-26T16:56:38.082Z,42.68
2022-07-26T16:59:08.645Z,41.94
2022-07-26T17:01:36.843Z,42.29
2022-07-26T17:04:03.422Z,42.58
2022-07-26T17:06:29.859Z,42.77
2022-07-26T17:08:56.354Z,42.67
2022-07-26T17:11:22.906Z,42.24
2022-07-26T17:13:49.607Z,42.29
2022-07-26T17:16:16.164Z,42.35
2022-07-26T17:18:50.751Z,42.38
2022-07-26T17:21:17.358Z,42.43
2022-07-26T17:23:44.053Z,42.46
2022-07-26T17:26:10.578Z,42.12
2022-07-26T17:28:37.114Z,42.18
2022-07-26T17:31:03.640Z,42.29
2022-07-26T17:33:30.270Z,42.21
2022-07-26T17:35:56.791Z,42.20
2022-07-26T17:38:28.787Z,42.04
2022-07-26T17:40:57.026Z,41.89
2022-07-26T17:43:23.562Z,42.01
2022-07-26T17:45:50.410Z,41.99
2022-07-26T17:48:16.896Z,41.37
2022-07-26T17:50:43.362Z,41.48
2022-07-26T17:53:09.882Z,41.53
2022-07-26T17:55:36.317Z,41.82
2022-07-26T17:58:02.851Z,42.01
2022-07-26T18:00:29.665Z,42.14
2022-07-26T18:02:57.206Z,42.46
2022-07-26T18:05:30.160Z,42.20
2022-07-26T18:07:59.991Z,42.23
2022-07-26T18:10:27.605Z,42.45
2022-07-26T18:12:54.777Z,42.62
2022-07-26T18:15:21.909Z,42.61
2022-07-26T18:17:48.552Z,42.07
2022-07-26T18:20:15.169Z,41.90
2022-07-26T18:22:41.646Z,42.19
2022-07-26T18:25:12.685Z,42.16
2022-07-26T18:27:39.665Z,41.90
2022-07-26T18:30:07.179Z,41.95
2022-07-26T18:32:34.814Z,41.74
2022-07-26T18:35:01.408Z,41.80
2022-07-26T18:37:27.963Z,41.36
2022-07-26T18:39:57.844Z,41.39
2022-07-26T18:42:25.020Z,41.10
2022-07-26T18:44:51.705Z,41.42
2022-07-26T18:47:18.210Z,41.63
2022-07-26T18:49:44.655Z,41.53
2022-07-26T18:52:11.504Z,41.46
2022-07-26T18:54:37.939Z,41.58
2022-07-26T18:57:04.790Z,41.76
2022-07-26T18:59:31.671Z,41.50
2022-07-26T19:01:59.789Z,41.73
2022-07-26T19:04:26.817Z,41.65
2022-07-26T19:06:53.423Z,41.56
2022-07-26T19:09:20.090Z,41.64
2022-07-26T19:11:46.698Z,41.66
2022-07-26T19:14:13.355Z,41.79
2022-07-26T19:16:39.981Z,41.78
2022-07-26T19:19:06.438Z,41.74
2022-07-26T19:21:32.962Z,42.01
2022-07-26T19:23:59.467Z,41.86
2022-07-26T19:26:27.324Z,42.11
2022-07-26T19:28:54.025Z,42.31
2022-07-26T19:31:21.743Z,42.34
2022-07-26T19:33:48.319Z,42.27
2022-07-26T19:36:17.365Z,42.46
2022-07-26T19:38:52.261Z,42.49
2022-07-26T19:41:19.902Z,42.38
2022-07-26T19:43:46.418Z,42.71
2022-07-26T19:46:13.150Z,42.38
2022-07-26T19:48:39.920Z,42.46
2022-07-26T19:51:06.468Z,42.73
2022-07-26T19:53:32.952Z,42.78
2022-07-26T19:55:59.414Z,42.73
2022-07-26T19:58:26.222Z,42.86
2022-07-26T20:00:53.581Z,42.73
2022-07-26T20:03:20.039Z,42.99
2022-07-26T20:05:46.576Z,42.63
2022-07-26T20:08:13.042Z,42.87
2022-07-26T20:10:39.698Z,42.75
2022-07-26T20:13:06.278Z,42.73
2022-07-26T20:15:33.077Z,42.58
2022-07-26T20:17:59.641Z,42.65
2022-07-26T20:20:26.206Z,42.80
2022-07-26T20:22:52.711Z,42.73
2022-07-26T20:25:21.576Z,42.74
2022-07-26T20:27:51.222Z,42.90
2022-07-26T20:30:18.266Z,42.70
2022-07-26T20:32:44.806Z,42.86
2022-07-26T20:35:12.114Z,42.93
2022-07-26T20:37:38.745Z,43.00
2022-07-26T20:40:08.358Z,43.03
2022-07-26T20:42:36.575Z,43.18
2022-07-26T20:45:11.430Z,43.18
2022-07-26T20:47:43.052Z,43.66
2022-07-26T20:50:14.152Z,43.54
2022-07-26T20:52:40.625Z,43.69
2022-07-26T20:55:07.987Z,44.04
2022-07-26T20:57:34.722Z,43.65
2022-07-26T21:00:01.255Z,43.57
2022-07-26T21:02:27.938Z,43.65
2022-07-26T21:04:54.587Z,43.90
2022-07-26T21:07:21.037Z,43.86
2022-07-26T21:09:47.712Z,43.83
2022-07-26T21:12:14.243Z,44.43
2022-07-26T21:14:40.752Z,44.32
2022-07-26T21:17:11.594Z,44.25
2022-07-26T21:19:39.320Z,44.43
2022-07-26T21:22:05.981Z,44.30
2022-07-26T21:24:32.780Z,44.36
2022-07-26T21:26:59.242Z,44.54
2022-07-26T21:29:25.819Z,44.46
2022-07-26T21:31:52.340Z,44.63
2022-07-26T21:34:19.221Z,44.55
2022-07-26T21:36:46.218Z,45.00
2022-07-26T21:39:13.711Z,44.82
2022-07-26T21:41:40.477Z,44.97
2022-07-26T21:44:06.963Z,45.30
2022-07-26T21:46:33.511Z,45.30
2022-07-26T21:49:00.108Z,45.10
2022-07-26T21:51:26.778Z,45.09
2022-07-26T21:53:53.304Z,45.42
2022-07-26T21:56:19.769Z,45.82
2022-07-26T21:58:46.856Z,46.03
